sensor_id;sensor_type;location;lat;lon;timestamp;P1;durP1;ratioP1;P2;durP2;ratioP2
69841;SDS011;57138;51.326;-0.068;2022-12-07T00:02:04;29.27;;;11.02;;
69841;SDS011;57138;51.326;-0.068;2022-12-07T00:04:29;27.77;;;10.00;;
69841;SDS011;57138;51.326;-0.068;2022-12-07T00:06:54;29.02;;;9.80;;
69841;SDS011;57138;51.326;-0.068;2022-12-07T00:09:20;24.27;;;10.70;;
69841;SDS011;57138;51.326;-0.068;2022-12-07T00:11:48;30.73;;;10.30;;
69841;SDS011;57138;51.326;-0.068;2022-12-07T00:14:15;22.10;;;9.48;;
69841;SDS011;57138;51.326;-0.068;2022-12-07T00:16:41;25.05;;;11.48;;
69841;SDS011;57138;51.326;-0.068;2022-12-07T00:19:08;28.13;;;10.80;;
69841;SDS011;57138;51.326;-0.068;2022-12-07T00:21:35;26.08;;;9.82;;
69841;SDS011;57138;51.326;-0.068;2022-12-07T00:24:02;32.05;;;9.65;;
69841;SDS011;57138;51.326;-0.068;2022-12-07T00:26:29;26.40;;;9.65;;
69841;SDS011;57138;51.326;-0.068;2022-12-07T00:28:58;30.90;;;9.38;;
69841;SDS011;57138;51.326;-0.068;2022-12-07T00:31:26;24.85;;;8.90;;
69841;SDS011;57138;51.326;-0.068;2022-12-07T00:33:53;22.10;;;9.00;;
69841;SDS011;57138;51.326;-0.068;2022-12-07T00:36:20;22.70;;;8.43;;
69841;SDS011;57138;51.326;-0.068;2022-12-07T00:38:47;20.83;;;7.50;;
69841;SDS011;57138;51.326;-0.068;2022-12-07T00:41:14;18.73;;;7.38;;
69841;SDS011;57138;51.326;-0.068;2022-12-07T00:43:41;18.13;;;7.47;;
69841;SDS011;57138;51.326;-0.068;2022-12-07T00:46:07;20.80;;;7.53;;
69841;SDS011;57138;51.326;-0.068;2022-12-07T00:48:33;17.67;;;7.43;;
69841;SDS011;57138;51.326;-0.068;2022-12-07T00:50:59;19.85;;;7.22;;
69841;SDS011;57138;51.326;-0.068;2022-12-07T00:53:25;18.38;;;7.85;;
69841;SDS011;57138;51.326;-0.068;2022-12-07T00:55:51;20.38;;;8.30;;
69841;SDS011;57138;51.326;-0.068;2022-12-07T00:58:18;17.48;;;8.65;;
69841;SDS011;57138;51.326;-0.068;2022-12-07T01:00:44;22.63;;;8.60;;
69841;SDS011;57138;51.326;-0.068;2022-12-07T01:03:10;22.02;;;7.75;;
69841;SDS011;57138;51.326;-0.068;2022-12-07T01:05:37;18.17;;;7.70;;
69841;SDS011;57138;51.326;-0.068;2022-12-07T01:08:03;29.92;;;9.13;;
69841;SDS011;57138;51.326;-0.068;2022-12-07T01:10:29;19.00;;;6.95;;
69841;SDS011;57138;51.326;-0.068;2022-12-07T01:12:55;20.67;;;7.65;;
69841;SDS011;57138;51.326;-0.068;2022-12-07T01:15:21;16.20;;;7.35;;
69841;SDS011;57138;51.326;-0.068;2022-12-07T01:17:47;23.58;;;7.35;;
69841;SDS011;57138;51.326;-0.068;2022-12-07T01:20:12;21.75;;;7.78;;
69841;SDS011;57138;51.326;-0.068;2022-12-07T01:22:38;15.23;;;6.95;;
69841;SDS011;57138;51.326;-0.068;2022-12-07T01:25:06;20.40;;;6.63;;
69841;SDS011;57138;51.326;-0.068;2022-12-07T01:27:33;26.23;;;9.88;;
69841;SDS011;57138;51.326;-0.068;2022-12-07T01:29:59;20.42;;;7.22;;
69841;SDS011;57138;51.326;-0.068;2022-12-07T01:32:26;20.20;;;7.93;;
69841;SDS011;57138;51.326;-0.068;2022-12-07T01:34:51;18.95;;;7.72;;
69841;SDS011;57138;51.326;-0.068;2022-12-07T01:37:17;24.40;;;7.68;;
69841;SDS011;57138;51.326;-0.068;2022-12-07T01:39:43;21.88;;;8.15;;
69841;SDS011;57138;51.326;-0.068;2022-12-07T01:42:09;23.85;;;10.20;;
69841;SDS011;57138;51.326;-0.068;2022-12-07T01:47:59;20.13;;;8.23;;
69841;SDS011;57138;51.326;-0.068;2022-12-07T01:50:25;21.98;;;8.73;;
69841;SDS011;57138;51.326;-0.068;2022-12-07T01:52:53;16.05;;;6.97;;
69841;SDS011;57138;51.326;-0.068;2022-12-07T01:55:21;18.70;;;8.65;;
69841;SDS011;57138;51.326;-0.068;2022-12-07T01:57:48;27.05;;;8.20;;
69841;SDS011;57138;51.326;-0.068;2022-12-07T02:00:16;15.23;;;7.53;;
69841;SDS011;57138;51.326;-0.068;2022-12-07T02:02:44;21.33;;;8.63;;
69841;SDS011;57138;51.326;-0.068;2022-12-07T02:05:13;16.70;;;8.57;;
69841;SDS011;57138;51.326;-0.068;2022-12-07T02:07:39;23.85;;;9.38;;
69841;SDS011;57138;51.326;-0.068;2022-12-07T02:10:15;22.33;;;9.13;;
69841;SDS011;57138;51.326;-0.068;2022-12-07T02:12:42;25.55;;;10.55;;
69841;SDS011;57138;51.326;-0.068;2022-12-07T02:15:13;25.27;;;10.02;;
69841;SDS011;57138;51.326;-0.068;2022-12-07T02:17:48;24.83;;;9.48;;
69841;SDS011;57138;51.326;-0.068;2022-12-07T02:28:31;21.67;;;8.63;;
69841;SDS011;57138;51.326;-0.068;2022-12-07T02:31:14;22.40;;;8.23;;
69841;SDS011;57138;51.326;-0.068;2022-12-07T02:33:47;22.55;;;9.52;;
69841;SDS011;57138;51.326;-0.068;2022-12-07T02:36:27;24.83;;;8.55;;
69841;SDS011;57138;51.326;-0.068;2022-12-07T02:41:36;21.50;;;8.95;;
69841;SDS011;57138;51.326;-0.068;2022-12-07T02:44:07;29.20;;;9.50;;
69841;SDS011;57138;51.326;-0.068;2022-12-07T02:46:42;22.80;;;7.88;;
69841;SDS011;57138;51.326;-0.068;2022-12-07T02:49:09;26.42;;;9.52;;
69841;SDS011;57138;51.326;-0.068;2022-12-07T02:51:39;24.88;;;9.25;;
69841;SDS011;57138;51.326;-0.068;2022-12-07T02:54:17;36.10;;;9.77;;
69841;SDS011;57138;51.326;-0.068;2022-12-07T02:56:45;24.13;;;8.20;;
69841;SDS011;57138;51.326;-0.068;2022-12-07T03:05:08;23.05;;;9.00;;
69841;SDS011;57138;51.326;-0.068;2022-12-07T03:10:28;24.17;;;8.63;;
69841;SDS011;57138;51.326;-0.068;2022-12-07T03:18:29;22.85;;;8.88;;
69841;SDS011;57138;51.326;-0.068;2022-12-07T03:21:00;26.17;;;9.50;;
69841;SDS011;57138;51.326;-0.068;2022-12-07T03:23:29;28.73;;;8.45;;
69841;SDS011;57138;51.326;-0.068;2022-12-07T03:25:58;25.50;;;9.40;;
69841;SDS011;57138;51.326;-0.068;2022-12-07T03:28:26;26.15;;;9.02;;
69841;SDS011;57138;51.326;-0.068;2022-12-07T03:30:58;24.35;;;9.13;;
69841;SDS011;57138;51.326;-0.068;2022-12-07T03:33:31;26.25;;;9.77;;
69841;SDS011;57138;51.326;-0.068;2022-12-07T03:38:45;21.33;;;7.82;;
69841;SDS011;57138;51.326;-0.068;2022-12-07T03:41:23;29.52;;;10.23;;
69841;SDS011;57138;51.326;-0.068;2022-12-07T03:43:51;26.70;;;11.60;;
69841;SDS011;57138;51.326;-0.068;2022-12-07T03:49:30;22.42;;;9.35;;
69841;SDS011;57138;51.326;-0.068;2022-12-07T03:52:11;21.48;;;9.52;;
69841;SDS011;57138;51.326;-0.068;2022-12-07T03:54:56;18.52;;;8.90;;
69841;SDS011;57138;51.326;-0.068;2022-12-07T03:57:25;17.00;;;8.10;;
69841;SDS011;57138;51.326;-0.068;2022-12-07T03:59:54;22.55;;;9.43;;
69841;SDS011;57138;51.326;-0.068;2022-12-07T04:02:21;28.23;;;8.98;;
69841;SDS011;57138;51.326;-0.068;2022-12-07T04:04:48;22.65;;;9.18;;
69841;SDS011;57138;51.326;-0.068;2022-12-07T04:07:14;26.23;;;10.07;;
69841;SDS011;57138;51.326;-0.068;2022-12-07T04:09:40;26.77;;;10.23;;
69841;SDS011;57138;51.326;-0.068;2022-12-07T04:12:05;22.40;;;9.32;;
69841;SDS011;57138;51.326;-0.068;2022-12-07T04:14:30;22.77;;;9.10;;
69841;SDS011;57138;51.326;-0.068;2022-12-07T04:16:59;22.35;;;10.23;;
69841;SDS011;57138;51.326;-0.068;2022-12-07T04:19:28;18.95;;;9.60;;
69841;SDS011;57138;51.326;-0.068;2022-12-07T04:21:56;25.02;;;10.45;;
69841;SDS011;57138;51.326;-0.068;2022-12-07T04:24:22;26.27;;;10.98;;
69841;SDS011;57138;51.326;-0.068;2022-12-07T04:26:47;19.85;;;9.40;;
69841;SDS011;57138;51.326;-0.068;2022-12-07T04:29:13;25.42;;;10.93;;
69841;SDS011;57138;51.326;-0.068;2022-12-07T04:31:39;30.50;;;12.45;;
69841;SDS011;57138;51.326;-0.068;2022-12-07T04:34:04;30.85;;;11.70;;
69841;SDS011;57138;51.326;-0.068;2022-12-07T04:36:31;35.22;;;11.43;;
69841;SDS011;57138;51.326;-0.068;2022-12-07T04:38:57;28.52;;;10.98;;
69841;SDS011;57138;51.326;-0.068;2022-12-07T04:41:23;32.08;;;10.48;;
69841;SDS011;57138;51.326;-0.068;2022-12-07T04:43:53;28.42;;;11.90;;
69841;SDS011;57138;51.326;-0.068;2022-12-07T04:46:20;29.73;;;11.20;;
69841;SDS011;57138;51.326;-0.068;2022-12-07T04:48:45;24.92;;;9.77;;
69841;SDS011;57138;51.326;-0.068;2022-12-07T04:51:10;36.15;;;12.57;;
69841;SDS011;57138;51.326;-0.068;2022-12-07T04:53:36;28.13;;;11.75;;
69841;SDS011;57138;51.326;-0.068;2022-12-07T04:56:01;30.50;;;11.50;;
69841;SDS011;57138;51.326;-0.068;2022-12-07T04:58:27;29.90;;;11.52;;
69841;SDS011;57138;51.326;-0.068;2022-12-07T05:00:55;31.10;;;10.80;;
69841;SDS011;57138;51.326;-0.068;2022-12-07T05:03:20;25.23;;;11.73;;
69841;SDS011;57138;51.326;-0.068;2022-12-07T05:05:46;30.30;;;11.90;;
69841;SDS011;57138;51.326;-0.068;2022-12-07T05:08:11;22.80;;;8.73;;
69841;SDS011;57138;51.326;-0.068;2022-12-07T05:10:36;33.15;;;12.15;;
69841;SDS011;57138;51.326;-0.068;2022-12-07T05:13:02;25.60;;;10.38;;
69841;SDS011;57138;51.326;-0.068;2022-12-07T05:15:27;26.42;;;10.95;;
69841;SDS011;57138;51.326;-0.068;2022-12-07T05:17:52;33.08;;;11.45;;
69841;SDS011;57138;51.326;-0.068;2022-12-07T05:20:18;27.00;;;11.77;;
69841;SDS011;57138;51.326;-0.068;2022-12-07T05:22:43;27.17;;;11.70;;
69841;SDS011;57138;51.326;-0.068;2022-12-07T05:25:09;32.38;;;11.95;;
69841;SDS011;57138;51.326;-0.068;2022-12-07T05:27:34;29.08;;;13.00;;
69841;SDS011;57138;51.326;-0.068;2022-12-07T05:29:59;33.13;;;12.85;;
69841;SDS011;57138;51.326;-0.068;2022-12-07T05:32:25;32.75;;;12.45;;
69841;SDS011;57138;51.326;-0.068;2022-12-07T05:34:51;35.00;;;13.38;;
69841;SDS011;57138;51.326;-0.068;2022-12-07T05:37:16;30.10;;;12.25;;
69841;SDS011;57138;51.326;-0.068;2022-12-07T05:39:42;26.42;;;12.07;;
69841;SDS011;57138;51.326;-0.068;2022-12-07T05:42:08;27.58;;;12.10;;
69841;SDS011;57138;51.326;-0.068;2022-12-07T05:44:44;21.48;;;10.32;;
69841;SDS011;57138;51.326;-0.068;2022-12-07T05:47:11;29.63;;;11.40;;
69841;SDS011;57138;51.326;-0.068;2022-12-07T05:49:38;23.05;;;8.95;;
69841;SDS011;57138;51.326;-0.068;2022-12-07T05:52:03;22.50;;;10.10;;
69841;SDS011;57138;51.326;-0.068;2022-12-07T05:54:29;22.58;;;10.60;;
69841;SDS011;57138;51.326;-0.068;2022-12-07T05:56:54;23.33;;;9.82;;
69841;SDS011;57138;51.326;-0.068;2022-12-07T05:59:20;19.52;;;9.82;;
69841;SDS011;57138;51.326;-0.068;2022-12-07T06:04:20;26.92;;;10.82;;
69841;SDS011;57138;51.326;-0.068;2022-12-07T06:06:46;27.35;;;11.73;;
69841;SDS011;57138;51.326;-0.068;2022-12-07T06:09:13;19.85;;;9.20;;
69841;SDS011;57138;51.326;-0.068;2022-12-07T06:11:39;16.58;;;8.30;;
69841;SDS011;57138;51.326;-0.068;2022-12-07T06:14:24;19.95;;;9.77;;
69841;SDS011;57138;51.326;-0.068;2022-12-07T06:16:49;20.83;;;8.43;;
69841;SDS011;57138;51.326;-0.068;2022-12-07T06:19:15;23.00;;;8.68;;
69841;SDS011;57138;51.326;-0.068;2022-12-07T06:21:40;21.08;;;9.23;;
69841;SDS011;57138;51.326;-0.068;2022-12-07T06:24:06;19.35;;;8.57;;
69841;SDS011;57138;51.326;-0.068;2022-12-07T06:26:32;24.58;;;9.13;;
69841;SDS011;57138;51.326;-0.068;2022-12-07T06:28:57;21.00;;;8.50;;
69841;SDS011;57138;51.326;-0.068;2022-12-07T06:31:22;21.00;;;9.30;;
69841;SDS011;57138;51.326;-0.068;2022-12-07T06:33:48;21.00;;;8.30;;
69841;SDS011;57138;51.326;-0.068;2022-12-07T06:36:13;24.10;;;9.57;;
69841;SDS011;57138;51.326;-0.068;2022-12-07T06:38:39;19.58;;;7.45;;
69841;SDS011;57138;51.326;-0.068;2022-12-07T06:41:04;19.63;;;9.27;;
69841;SDS011;57138;51.326;-0.068;2022-12-07T06:43:30;20.83;;;9.20;;
69841;SDS011;57138;51.326;-0.068;2022-12-07T06:45:55;15.60;;;8.00;;
69841;SDS011;57138;51.326;-0.068;2022-12-07T06:48:20;24.20;;;7.70;;
69841;SDS011;57138;51.326;-0.068;2022-12-07T06:50:46;22.77;;;7.55;;
69841;SDS011;57138;51.326;-0.068;2022-12-07T06:53:12;17.55;;;7.30;;
69841;SDS011;57138;51.326;-0.068;2022-12-07T06:55:38;34.42;;;8.77;;
69841;SDS011;57138;51.326;-0.068;2022-12-07T06:58:03;20.27;;;7.70;;
69841;SDS011;57138;51.326;-0.068;2022-12-07T07:00:29;15.55;;;6.82;;
69841;SDS011;57138;51.326;-0.068;2022-12-07T07:02:55;21.58;;;8.80;;
69841;SDS011;57138;51.326;-0.068;2022-12-07T07:05:21;21.70;;;8.40;;
69841;SDS011;57138;51.326;-0.068;2022-12-07T07:07:48;20.30;;;9.32;;
69841;SDS011;57138;51.326;-0.068;2022-12-07T07:10:14;25.10;;;8.25;;
69841;SDS011;57138;51.326;-0.068;2022-12-07T07:12:39;23.80;;;9.85;;
69841;SDS011;57138;51.326;-0.068;2022-12-07T07:15:05;21.55;;;10.00;;
69841;SDS011;57138;51.326;-0.068;2022-12-07T07:17:31;24.35;;;9.40;;
69841;SDS011;57138;51.326;-0.068;2022-12-07T07:19:56;25.15;;;9.02;;
69841;SDS011;57138;51.326;-0.068;2022-12-07T07:22:21;16.63;;;8.05;;
69841;SDS011;57138;51.326;-0.068;2022-12-07T07:24:47;20.83;;;9.48;;
69841;SDS011;57138;51.326;-0.068;2022-12-07T07:27:12;19.35;;;8.15;;
69841;SDS011;57138;51.326;-0.068;2022-12-07T07:29:38;27.13;;;9.60;;
69841;SDS011;57138;51.326;-0.068;2022-12-07T07:32:03;26.88;;;10.13;;
69841;SDS011;57138;51.326;-0.068;2022-12-07T07:34:29;24.08;;;9.63;;
69841;SDS011;57138;51.326;-0.068;2022-12-07T07:36:55;24.08;;;10.52;;
69841;SDS011;57138;51.326;-0.068;2022-12-07T07:39:20;20.60;;;10.00;;
69841;SDS011;57138;51.326;-0.068;2022-12-07T07:41:46;21.10;;;10.75;;
69841;SDS011;57138;51.326;-0.068;2022-12-07T07:44:11;20.52;;;9.43;;
69841;SDS011;57138;51.326;-0.068;2022-12-07T07:46:37;28.63;;;10.15;;
69841;SDS011;57138;51.326;-0.068;2022-12-07T07:49:02;25.33;;;10.85;;
69841;SDS011;57138;51.326;-0.068;2022-12-07T07:51:28;24.10;;;9.30;;
69841;SDS011;57138;51.326;-0.068;2022-12-07T07:53:53;20.92;;;9.25;;
69841;SDS011;57138;51.326;-0.068;2022-12-07T07:56:19;24.35;;;9.45;;
69841;SDS011;57138;51.326;-0.068;2022-12-07T07:58:44;21.42;;;9.48;;
69841;SDS011;57138;51.326;-0.068;2022-12-07T08:01:09;21.98;;;9.73;;
69841;SDS011;57138;51.326;-0.068;2022-12-07T08:03:35;21.20;;;9.82;;
69841;SDS011;57138;51.326;-0.068;2022-12-07T08:06:03;21.10;;;10.57;;
69841;SDS011;57138;51.326;-0.068;2022-12-07T08:08:29;25.48;;;10.85;;
69841;SDS011;57138;51.326;-0.068;2022-12-07T08:10:55;22.42;;;10.07;;
69841;SDS011;57138;51.326;-0.068;2022-12-07T08:13:20;21.80;;;10.90;;
69841;SDS011;57138;51.326;-0.068;2022-12-07T08:15:47;27.90;;;11.05;;
69841;SDS011;57138;51.326;-0.068;2022-12-07T08:18:13;21.70;;;9.45;;
69841;SDS011;57138;51.326;-0.068;2022-12-07T08:20:40;29.98;;;12.20;;
69841;SDS011;57138;51.326;-0.068;2022-12-07T08:23:07;24.10;;;9.43;;
69841;SDS011;57138;51.326;-0.068;2022-12-07T08:25:33;26.17;;;10.60;;
69841;SDS011;57138;51.326;-0.068;2022-12-07T08:27:59;18.75;;;8.95;;
69841;SDS011;57138;51.326;-0.068;2022-12-07T08:30:27;24.95;;;8.75;;
69841;SDS011;57138;51.326;-0.068;2022-12-07T08:32:53;24.25;;;10.75;;
69841;SDS011;57138;51.326;-0.068;2022-12-07T08:35:18;19.90;;;10.07;;
69841;SDS011;57138;51.326;-0.068;2022-12-07T08:37:44;24.80;;;9.05;;
69841;SDS011;57138;51.326;-0.068;2022-12-07T08:40:10;18.90;;;8.45;;
69841;SDS011;57138;51.326;-0.068;2022-12-07T08:42:40;22.15;;;8.52;;
69841;SDS011;57138;51.326;-0.068;2022-12-07T08:45:10;17.85;;;7.82;;
69841;SDS011;57138;51.326;-0.068;2022-12-07T08:47:38;25.25;;;9.25;;
69841;SDS011;57138;51.326;-0.068;2022-12-07T08:50:08;16.05;;;8.68;;
69841;SDS011;57138;51.326;-0.068;2022-12-07T08:52:36;21.48;;;9.10;;
69841;SDS011;57138;51.326;-0.068;2022-12-07T08:55:03;23.45;;;8.90;;
69841;SDS011;57138;51.326;-0.068;2022-12-07T08:57:30;21.48;;;10.50;;
69841;SDS011;57138;51.326;-0.068;2022-12-07T08:59:59;24.02;;;9.60;;
69841;SDS011;57138;51.326;-0.068;2022-12-07T09:02:24;18.58;;;8.80;;
69841;SDS011;57138;51.326;-0.068;2022-12-07T09:04:50;19.85;;;9.00;;
69841;SDS011;57138;51.326;-0.068;2022-12-07T09:07:15;24.15;;;9.65;;
69841;SDS011;57138;51.326;-0.068;2022-12-07T09:09:41;17.20;;;7.88;;
69841;SDS011;57138;51.326;-0.068;2022-12-07T09:12:07;18.73;;;7.05;;
69841;SDS011;57138;51.326;-0.068;2022-12-07T09:14:33;19.33;;;9.43;;
69841;SDS011;57138;51.326;-0.068;2022-12-07T09:17:08;21.73;;;8.70;;
69841;SDS011;57138;51.326;-0.068;2022-12-07T09:19:36;20.27;;;6.50;;
69841;SDS011;57138;51.326;-0.068;2022-12-07T09:22:02;18.50;;;7.57;;
69841;SDS011;57138;51.326;-0.068;2022-12-07T09:24:30;21.75;;;8.88;;
69841;SDS011;57138;51.326;-0.068;2022-12-07T09:26:56;16.48;;;8.68;;
69841;SDS011;57138;51.326;-0.068;2022-12-07T09:29:22;25.77;;;10.00;;
69841;SDS011;57138;51.326;-0.068;2022-12-07T09:31:47;17.08;;;8.43;;
69841;SDS011;57138;51.326;-0.068;2022-12-07T09:34:13;20.92;;;9.40;;
69841;SDS011;57138;51.326;-0.068;2022-12-07T09:36:38;15.68;;;8.15;;
69841;SDS011;57138;51.326;-0.068;2022-12-07T09:39:04;19.00;;;8.98;;
69841;SDS011;57138;51.326;-0.068;2022-12-07T09:41:30;21.15;;;8.90;;
69841;SDS011;57138;51.326;-0.068;2022-12-07T09:44:07;20.02;;;8.20;;
69841;SDS011;57138;51.326;-0.068;2022-12-07T09:46:37;17.58;;;7.30;;
69841;SDS011;57138;51.326;-0.068;2022-12-07T09:49:05;17.02;;;8.75;;
69841;SDS011;57138;51.326;-0.068;2022-12-07T09:51:37;16.08;;;7.63;;
69841;SDS011;57138;51.326;-0.068;2022-12-07T09:54:02;22.38;;;7.75;;
69841;SDS011;57138;51.326;-0.068;2022-12-07T09:56:29;18.33;;;6.75;;
69841;SDS011;57138;51.326;-0.068;2022-12-07T09:58:59;17.00;;;7.07;;
69841;SDS011;57138;51.326;-0.068;2022-12-07T10:01:30;20.25;;;8.35;;
69841;SDS011;57138;51.326;-0.068;2022-12-07T10:04:14;18.45;;;7.82;;
69841;SDS011;57138;51.326;-0.068;2022-12-07T10:06:43;21.23;;;9.63;;
69841;SDS011;57138;51.326;-0.068;2022-12-07T10:09:12;15.27;;;7.68;;
69841;SDS011;57138;51.326;-0.068;2022-12-07T10:11:59;17.52;;;8.30;;
69841;SDS011;57138;51.326;-0.068;2022-12-07T10:16:53;22.25;;;10.15;;
69841;SDS011;57138;51.326;-0.068;2022-12-07T10:24:40;24.40;;;9.57;;
69841;SDS011;57138;51.326;-0.068;2022-12-07T10:27:18;19.33;;;9.32;;
69841;SDS011;57138;51.326;-0.068;2022-12-07T10:29:49;19.70;;;9.48;;
69841;SDS011;57138;51.326;-0.068;2022-12-07T10:34:42;15.93;;;6.70;;
69841;SDS011;57138;51.326;-0.068;2022-12-07T10:37:16;19.15;;;8.13;;
69841;SDS011;57138;51.326;-0.068;2022-12-07T10:40:01;24.08;;;9.15;;
69841;SDS011;57138;51.326;-0.068;2022-12-07T10:42:27;27.23;;;12.27;;
69841;SDS011;57138;51.326;-0.068;2022-12-07T10:45:08;28.38;;;12.18;;
69841;SDS011;57138;51.326;-0.068;2022-12-07T10:47:48;25.02;;;11.20;;
69841;SDS011;57138;51.326;-0.068;2022-12-07T10:53:44;24.45;;;11.10;;
69841;SDS011;57138;51.326;-0.068;2022-12-07T11:07:03;27.30;;;11.55;;
69841;SDS011;57138;51.326;-0.068;2022-12-07T11:14:56;28.17;;;10.63;;
69841;SDS011;57138;51.326;-0.068;2022-12-07T11:17:26;19.85;;;10.80;;
69841;SDS011;57138;51.326;-0.068;2022-12-07T11:22:46;29.17;;;11.48;;
69841;SDS011;57138;51.326;-0.068;2022-12-07T11:36:16;28.85;;;11.75;;
69841;SDS011;57138;51.326;-0.068;2022-12-07T11:38:49;23.42;;;12.70;;
69841;SDS011;57138;51.326;-0.068;2022-12-07T11:41:20;22.20;;;11.25;;
69841;SDS011;57138;51.326;-0.068;2022-12-07T11:46:26;20.90;;;10.00;;
69841;SDS011;57138;51.326;-0.068;2022-12-07T11:49:02;24.73;;;11.15;;
69841;SDS011;57138;51.326;-0.068;2022-12-07T11:51:37;31.98;;;11.35;;
69841;SDS011;57138;51.326;-0.068;2022-12-07T11:54:16;23.13;;;11.52;;
69841;SDS011;57138;51.326;-0.068;2022-12-07T11:56:49;20.00;;;9.45;;
69841;SDS011;57138;51.326;-0.068;2022-12-07T11:59:28;19.27;;;9.82;;
69841;SDS011;57138;51.326;-0.068;2022-12-07T12:02:14;22.27;;;9.35;;
69841;SDS011;57138;51.326;-0.068;2022-12-07T12:04:54;23.55;;;9.70;;
69841;SDS011;57138;51.326;-0.068;2022-12-07T12:07:27;29.00;;;10.07;;
69841;SDS011;57138;51.326;-0.068;2022-12-07T12:09:58;22.98;;;10.32;;
69841;SDS011;57138;51.326;-0.068;2022-12-07T12:23:20;24.73;;;11.50;;
69841;SDS011;57138;51.326;-0.068;2022-12-07T12:25:55;26.00;;;11.98;;
69841;SDS011;57138;51.326;-0.068;2022-12-07T12:28:27;29.00;;;11.65;;
69841;SDS011;57138;51.326;-0.068;2022-12-07T12:31:05;25.15;;;11.70;;
69841;SDS011;57138;51.326;-0.068;2022-12-07T12:33:31;24.67;;;9.68;;
69841;SDS011;57138;51.326;-0.068;2022-12-07T12:38:50;22.50;;;11.07;;
69841;SDS011;57138;51.326;-0.068;2022-12-07T12:44:08;24.38;;;10.85;;
69841;SDS011;57138;51.326;-0.068;2022-12-07T12:46:49;28.35;;;11.55;;
69841;SDS011;57138;51.326;-0.068;2022-12-07T12:51:53;23.60;;;10.20;;
69841;SDS011;57138;51.326;-0.068;2022-12-07T12:54:21;30.83;;;11.15;;
69841;SDS011;57138;51.326;-0.068;2022-12-07T13:01:50;20.15;;;10.45;;
69841;SDS011;57138;51.326;-0.068;2022-12-07T13:06:50;24.98;;;11.70;;
69841;SDS011;57138;51.326;-0.068;2022-12-07T13:09:18;24.60;;;10.68;;
69841;SDS011;57138;51.326;-0.068;2022-12-07T13:12:05;28.05;;;10.63;;
69841;SDS011;57138;51.326;-0.068;2022-12-07T13:14:43;30.52;;;10.77;;
69841;SDS011;57138;51.326;-0.068;2022-12-07T13:19:55;25.73;;;9.82;;
69841;SDS011;57138;51.326;-0.068;2022-12-07T13:22:55;22.13;;;9.13;;
69841;SDS011;57138;51.326;-0.068;2022-12-07T13:25:22;18.50;;;10.15;;
69841;SDS011;57138;51.326;-0.068;2022-12-07T13:30:50;25.13;;;9.32;;
69841;SDS011;57138;51.326;-0.068;2022-12-07T13:33:24;21.65;;;8.40;;
69841;SDS011;57138;51.326;-0.068;2022-12-07T13:35:54;24.23;;;9.93;;
69841;SDS011;57138;51.326;-0.068;2022-12-07T13:41:05;18.40;;;9.70;;
69841;SDS011;57138;51.326;-0.068;2022-12-07T13:43:58;23.80;;;9.95;;
69841;SDS011;57138;51.326;-0.068;2022-12-07T13:46:31;21.40;;;8.88;;
69841;SDS011;57138;51.326;-0.068;2022-12-07T13:49:15;18.30;;;9.85;;
69841;SDS011;57138;51.326;-0.068;2022-12-07T13:52:15;20.65;;;8.73;;
69841;SDS011;57138;51.326;-0.068;2022-12-07T13:54:57;26.10;;;9.18;;
69841;SDS011;57138;51.326;-0.068;2022-12-07T13:57:38;25.63;;;10.57;;
69841;SDS011;57138;51.326;-0.068;2022-12-07T14:00:05;17.70;;;8.20;;
69841;SDS011;57138;51.326;-0.068;2022-12-07T14:05:24;18.58;;;7.13;;
69841;SDS011;57138;51.326;-0.068;2022-12-07T14:10:27;20.30;;;7.65;;
69841;SDS011;57138;51.326;-0.068;2022-12-07T14:12:54;23.70;;;7.28;;
69841;SDS011;57138;51.326;-0.068;2022-12-07T14:15:22;18.15;;;7.50;;
69841;SDS011;57138;51.326;-0.068;2022-12-07T14:17:51;18.33;;;7.57;;
69841;SDS011;57138;51.326;-0.068;2022-12-07T14:20:34;18.85;;;7.55;;
69841;SDS011;57138;51.326;-0.068;2022-12-07T14:23:05;14.68;;;5.88;;
69841;SDS011;57138;51.326;-0.068;2022-12-07T14:25:49;18.15;;;7.05;;
69841;SDS011;57138;51.326;-0.068;2022-12-07T14:28:27;15.38;;;7.05;;
69841;SDS011;57138;51.326;-0.068;2022-12-07T14:30:54;13.27;;;5.43;;
69841;SDS011;57138;51.326;-0.068;2022-12-07T14:33:20;16.13;;;6.00;;
69841;SDS011;57138;51.326;-0.068;2022-12-07T14:35:47;17.20;;;7.38;;
69841;SDS011;57138;51.326;-0.068;2022-12-07T14:38:12;14.00;;;6.07;;
69841;SDS011;57138;51.326;-0.068;2022-12-07T14:40:38;23.55;;;6.40;;
69841;SDS011;57138;51.326;-0.068;2022-12-07T14:43:12;13.50;;;5.15;;
69841;SDS011;57138;51.326;-0.068;2022-12-07T14:45:41;13.25;;;6.03;;
69841;SDS011;57138;51.326;-0.068;2022-12-07T14:48:07;12.80;;;5.70;;
69841;SDS011;57138;51.326;-0.068;2022-12-07T14:50:37;12.48;;;5.43;;
69841;SDS011;57138;51.326;-0.068;2022-12-07T14:53:09;16.88;;;6.15;;
69841;SDS011;57138;51.326;-0.068;2022-12-07T14:55:40;15.13;;;6.32;;
69841;SDS011;57138;51.326;-0.068;2022-12-07T14:58:06;17.45;;;5.60;;
69841;SDS011;57138;51.326;-0.068;2022-12-07T15:00:38;19.25;;;6.15;;
69841;SDS011;57138;51.326;-0.068;2022-12-07T15:03:04;12.40;;;5.93;;
69841;SDS011;57138;51.326;-0.068;2022-12-07T15:05:29;23.17;;;5.72;;
69841;SDS011;57138;51.326;-0.068;2022-12-07T15:07:54;17.15;;;5.30;;
69841;SDS011;57138;51.326;-0.068;2022-12-07T15:12:47;16.45;;;5.22;;
69841;SDS011;57138;51.326;-0.068;2022-12-07T15:15:13;13.70;;;5.32;;
69841;SDS011;57138;51.326;-0.068;2022-12-07T15:17:39;14.60;;;5.53;;
69841;SDS011;57138;51.326;-0.068;2022-12-07T15:20:05;14.30;;;5.38;;
69841;SDS011;57138;51.326;-0.068;2022-12-07T15:22:36;20.60;;;6.63;;
69841;SDS011;57138;51.326;-0.068;2022-12-07T15:25:01;13.07;;;6.47;;
69841;SDS011;57138;51.326;-0.068;2022-12-07T15:27:29;13.63;;;5.88;;
69841;SDS011;57138;51.326;-0.068;2022-12-07T15:29:55;15.15;;;6.25;;
69841;SDS011;57138;51.326;-0.068;2022-12-07T15:32:20;22.50;;;5.68;;
69841;SDS011;57138;51.326;-0.068;2022-12-07T15:34:47;20.83;;;6.97;;
69841;SDS011;57138;51.326;-0.068;2022-12-07T15:37:14;16.38;;;5.60;;
69841;SDS011;57138;51.326;-0.068;2022-12-07T15:39:40;18.88;;;7.10;;
69841;SDS011;57138;51.326;-0.068;2022-12-07T15:42:06;16.75;;;6.35;;
69841;SDS011;57138;51.326;-0.068;2022-12-07T15:44:31;16.33;;;6.75;;
69841;SDS011;57138;51.326;-0.068;2022-12-07T15:47:15;20.23;;;7.50;;
69841;SDS011;57138;51.326;-0.068;2022-12-07T15:49:41;12.45;;;5.93;;
69841;SDS011;57138;51.326;-0.068;2022-12-07T15:52:06;18.20;;;6.25;;
69841;SDS011;57138;51.326;-0.068;2022-12-07T15:54:32;16.60;;;6.75;;
69841;SDS011;57138;51.326;-0.068;2022-12-07T15:56:57;15.98;;;7.22;;
69841;SDS011;57138;51.326;-0.068;2022-12-07T15:59:23;16.17;;;7.18;;
69841;SDS011;57138;51.326;-0.068;2022-12-07T16:01:49;21.02;;;6.53;;
69841;SDS011;57138;51.326;-0.068;2022-12-07T16:04:14;18.25;;;6.65;;
69841;SDS011;57138;51.326;-0.068;2022-12-07T16:06:40;15.27;;;7.22;;
69841;SDS011;57138;51.326;-0.068;2022-12-07T16:09:05;14.07;;;6.53;;
69841;SDS011;57138;51.326;-0.068;2022-12-07T16:11:31;13.40;;;6.85;;
69841;SDS011;57138;51.326;-0.068;2022-12-07T16:13:57;17.20;;;7.03;;
69841;SDS011;57138;51.326;-0.068;2022-12-07T16:16:23;16.30;;;7.45;;
69841;SDS011;57138;51.326;-0.068;2022-12-07T16:18:49;12.23;;;6.55;;
69841;SDS011;57138;51.326;-0.068;2022-12-07T16:21:16;18.17;;;6.05;;
69841;SDS011;57138;51.326;-0.068;2022-12-07T16:23:43;14.65;;;7.63;;
69841;SDS011;57138;51.326;-0.068;2022-12-07T16:26:13;17.70;;;7.75;;
69841;SDS011;57138;51.326;-0.068;2022-12-07T16:28:41;22.35;;;8.55;;
69841;SDS011;57138;51.326;-0.068;2022-12-07T16:31:08;33.92;;;10.13;;
69841;SDS011;57138;51.326;-0.068;2022-12-07T16:33:36;32.72;;;11.90;;